^^
Saratoga-Weather Station Historical Data
Daily Summary for July 4, 2020 Units:  Both    English   Metric
Daily Weekly Monthly Yearly Custom
  High: Low: Average:
Temperature: 45.1 °F /  7.3 °C 34.5 °F /  1.4 °C 41.2 °F /  5.1 °C
Dew Point: 41.9 °F /  5.5 °C 33.4 °F /  0.8 °C 39 °F /  3.9 °C
Humidity: 97% 86% 92%
Wind Speed: 13mph /  20.9km/h - 1.7mph /  2.8km/h
Wind Gust: 21mph /  33.8km/h - -
Wind- - SE
Pressure: 29.2 in /  990.2 hPa 29 in /  983.1 hPa -
Precipitation: 0.1 in /  2.5 mm    
Historical Graphs
 
 
Tabular Data for July 4, 2020
Time Temperature Dew Point Pressure Wind Wind Speed Wind Gust Humidity Rainfall Rate (Hourly) solar
00:00 40.3 °F /  4.6 °C 39 °F /  3.9 °C 29.1in /  986.5hPa East 4.9mph /  7.9km/h 13mph /  20.9km/h 95% 0.02in /  0.5mm 0 W/m2
00:05 40.3 °F /  4.6 °C 39 °F /  3.9 °C 29.1in /  986.5hPa ESE 2mph /  3.2km/h 8mph /  12.9km/h 95% 0.02in /  0.5mm 0 W/m2
00:10 40.3 °F /  4.6 °C 39 °F /  3.9 °C 29.1in /  986.1hPa ENE 2.9mph /  4.7km/h 13mph /  20.9km/h 95% 0.02in /  0.5mm 0 W/m2
00:15 40.5 °F /  4.7 °C 39.2 °F /  4 °C 29.1in /  986.1hPa ENE 4mph /  6.4km/h 9mph /  14.5km/h 95% 0.02in /  0.5mm 0 W/m2
00:20 40.5 °F /  4.7 °C 39.2 °F /  4 °C 29.1in /  985.8hPa Calm   4mph /  6.4km/h 95% 0.02in /  0.5mm 0 W/m2
00:25 40.5 °F /  4.7 °C 39.2 °F /  4 °C 29.1in /  985.8hPa ESE 2mph /  3.2km/h 6mph /  9.7km/h 95% 0.02in /  0.5mm 0 W/m2
00:30 40.6 °F /  4.8 °C 39.4 °F /  4.1 °C 29.1in /  985.8hPa ESE 2mph /  3.2km/h 14mph /  22.5km/h 95% 0.02in /  0.5mm 0 W/m2
00:35 40.6 °F /  4.8 °C 39 °F /  3.9 °C 29.1in /  985.8hPa ENE 0.9mph /  1.4km/h 3mph /  4.8km/h 94% 0.02in /  0.5mm 0 W/m2
00:40 40.6 °F /  4.8 °C 39 °F /  3.9 °C 29.1in /  985.8hPa SSE 6mph /  9.7km/h 10mph /  16.1km/h 94% 0.02in /  0.5mm 0 W/m2
00:45 40.6 °F /  4.8 °C 39.4 °F /  4.1 °C 29.1in /  985.4hPa East 8.9mph /  14.3km/h 9mph /  14.5km/h 95% 0.02in /  0.5mm 0 W/m2
00:50 40.8 °F /  4.9 °C 39.6 °F /  4.2 °C 29.1in /  985.4hPa ESE 4.9mph /  7.9km/h 11mph /  17.7km/h 95% 0.01in /  0.2mm 0 W/m2
00:55 40.8 °F /  4.9 °C 39.6 °F /  4.2 °C 29.1in /  985.4hPa ESE 4mph /  6.4km/h 5mph /  8km/h 95% 0.01in /  0.2mm 0 W/m2
01:01 40.8 °F /  4.9 °C 39.6 °F /  4.2 °C 29.1in /  985.1hPa SSE 4mph /  6.4km/h 11mph /  17.7km/h 95% 0.01in /  0.2mm 0 W/m2
01:06 40.8 °F /  4.9 °C 39.6 °F /  4.2 °C 29.1in /  985.1hPa ESE 6.9mph /  11.1km/h 9mph /  14.5km/h 95% 0.01in /  0.2mm 0 W/m2
01:11 40.8 °F /  4.9 °C 39.6 °F /  4.2 °C 29.1in /  985.1hPa ESE 4mph /  6.4km/h 6mph /  9.7km/h 95% 0.02in /  0.5mm 0 W/m2
01:16 40.8 °F /  4.9 °C 39.6 °F /  4.2 °C 29.1in /  985.1hPa SE 6.9mph /  11.1km/h 10mph /  16.1km/h 95% 0.01in /  0.2mm 0 W/m2
01:21 41 °F /  5 °C 39.7 °F /  4.3 °C 29.1in /  984.8hPa NE 0.9mph /  1.4km/h 6mph /  9.7km/h 95% 0.01in /  0.2mm 0 W/m2
01:26 41 °F /  5 °C 39.7 °F /  4.3 °C 29.1in /  984.8hPa ENE 4mph /  6.4km/h 10mph /  16.1km/h 95% 0.01in /  0.2mm 0 W/m2
01:31 41.2 °F /  5.1 °C 39.9 °F /  4.4 °C 29.1in /  984.8hPa ENE 2.9mph /  4.7km/h 7mph /  11.3km/h 95% 0.01in /  0.2mm 0 W/m2
01:36 41.2 °F /  5.1 °C 39.9 °F /  4.4 °C 29.1in /  984.4hPa East 4mph /  6.4km/h 11mph /  17.7km/h 95% 0.01in /  0.2mm 0 W/m2
01:41 41.4 °F /  5.2 °C 40.1 °F /  4.5 °C 29.1in /  984.4hPa ESE 2mph /  3.2km/h 6mph /  9.7km/h 95% 0.01in /  0.2mm 0 W/m2
01:46 41.5 °F /  5.3 °C 39.9 °F /  4.4 °C 29.1in /  984.4hPa SE 0.9mph /  1.4km/h 11mph /  17.7km/h 94% 0.02in /  0.5mm 0 W/m2
01:51 41.7 °F /  5.4 °C 40.1 °F /  4.5 °C 29.1in /  984.4hPa ENE 4.9mph /  7.9km/h 12mph /  19.3km/h 94% 0.02in /  0.5mm 0 W/m2
01:56 42.1 °F /  5.6 °C 40.5 °F /  4.7 °C 29.1in /  984.4hPa ENE 2.9mph /  4.7km/h 9mph /  14.5km/h 94% 0.02in /  0.5mm 0 W/m2
02:01 42.1 °F /  5.6 °C 40.5 °F /  4.7 °C 29.1in /  984.1hPa East 4.9mph /  7.9km/h 12mph /  19.3km/h 94% 0.02in /  0.5mm 0 W/m2
02:06 42.3 °F /  5.7 °C 40.6 °F /  4.8 °C 29.1in /  984.1hPa ENE 2.9mph /  4.7km/h 7mph /  11.3km/h 94% 0.02in /  0.5mm 0 W/m2
02:11 42.3 °F /  5.7 °C 40.6 °F /  4.8 °C 29.1in /  984.1hPa East 2.9mph /  4.7km/h 10mph /  16.1km/h 94% 0.02in /  0.5mm 0 W/m2
02:16 42.4 °F /  5.8 °C 40.8 °F /  4.9 °C 29.1in /  984.1hPa ESE 12.1mph /  19.5km/h 12mph /  19.3km/h 94% 0.02in /  0.5mm 0 W/m2
02:21 42.6 °F /  5.9 °C 41 °F /  5 °C 29.1in /  983.8hPa ESE 13mph /  20.9km/h 13mph /  20.9km/h 94% 0.02in /  0.5mm 0 W/m2
02:26 43 °F /  6.1 °C 41.2 °F /  5.1 °C 29.1in /  984.1hPa NE 6mph /  9.7km/h 8mph /  12.9km/h 93% 0.02in /  0.5mm 0 W/m2
02:31 43 °F /  6.1 °C 41.2 °F /  5.1 °C 29.1in /  983.8hPa East 6mph /  9.7km/h 9mph /  14.5km/h 93% 0.02in /  0.5mm 0 W/m2
02:36 43.2 °F /  6.2 °C 41.4 °F /  5.2 °C 29.1in /  983.8hPa SSE 10.1mph /  16.3km/h 11mph /  17.7km/h 93% 0.03in /  0.8mm 0 W/m2
02:41 43.3 °F /  6.3 °C 41.5 °F /  5.3 °C 29.1in /  983.8hPa East 2mph /  3.2km/h 8mph /  12.9km/h 93% 0.03in /  0.8mm 0 W/m2
02:46 43.3 °F /  6.3 °C 41.5 °F /  5.3 °C 29.1in /  983.8hPa SE 2mph /  3.2km/h 10mph /  16.1km/h 93% 0.02in /  0.5mm 0 W/m2
02:51 43.3 °F /  6.3 °C 41.5 °F /  5.3 °C 29in /  983.4hPa East 2.9mph /  4.7km/h 9mph /  14.5km/h 93% 0.02in /  0.5mm 0 W/m2
02:56 43.3 °F /  6.3 °C 41.5 °F /  5.3 °C 29.1in /  983.8hPa ENE 2mph /  3.2km/h 14mph /  22.5km/h 93% 0.02in /  0.5mm 0 W/m2
03:01 43.5 °F /  6.4 °C 41.4 °F /  5.2 °C 29in /  983.4hPa ENE 13mph /  20.9km/h 15mph /  24.1km/h 92% 0.02in /  0.5mm 0 W/m2
03:06 43.7 °F /  6.5 °C 41.5 °F /  5.3 °C 29in /  983.4hPa East 11mph /  17.7km/h 11mph /  17.7km/h 92% 0.02in /  0.5mm 0 W/m2
03:11 43.9 °F /  6.6 °C 41.7 °F /  5.4 °C 29in /  983.4hPa ENE 6.9mph /  11.1km/h 11mph /  17.7km/h 92% 0.01in /  0.2mm 0 W/m2
03:16 44.1 °F /  6.7 °C 41.9 °F /  5.5 °C 29in /  983.4hPa East 4.9mph /  7.9km/h 9mph /  14.5km/h 92% 0.01in /  0.2mm 0 W/m2
03:21 44.1 °F /  6.7 °C 41.5 °F /  5.3 °C 29in /  983.4hPa ESE 8.9mph /  14.3km/h 21mph /  33.8km/h 91% 0.02in /  0.5mm 0 W/m2
03:26 44.1 °F /  6.7 °C 41.5 °F /  5.3 °C 29in /  983.1hPa SE 4.9mph /  7.9km/h 11mph /  17.7km/h 91% 0.02in /  0.5mm 0 W/m2
03:31 44.1 °F /  6.7 °C 41.5 °F /  5.3 °C 29in /  983.1hPa WSW 2.9mph /  4.7km/h 9mph /  14.5km/h 91% 0.02in /  0.5mm 0 W/m2
03:36 44.2 °F /  6.8 °C 41.7 °F /  5.4 °C 29in /  983.4hPa SSE 2mph /  3.2km/h 18mph /  29km/h 91% 0.01in /  0.2mm 0 W/m2
03:41 44.2 °F /  6.8 °C 41.7 °F /  5.4 °C 29in /  983.1hPa ENE 8.1mph /  13km/h 11mph /  17.7km/h 91% 0.01in /  0.2mm 0 W/m2
03:46 44.2 °F /  6.8 °C 41.7 °F /  5.4 °C 29in /  983.1hPa East 6mph /  9.7km/h 18mph /  29km/h 91% 0.01in /  0.2mm 0 W/m2
03:51 44.2 °F /  6.8 °C 41.5 °F /  5.3 °C 29in /  983.1hPa NW 2mph /  3.2km/h 8mph /  12.9km/h 90% 0.01in /  0.2mm 0 W/m2
03:56 44.2 °F /  6.8 °C 41.5 °F /  5.3 °C 29in /  983.1hPa ENE 2.9mph /  4.7km/h 8mph /  12.9km/h 90% 0.01in /  0.2mm 0 W/m2
04:01 44.4 °F /  6.9 °C 41.7 °F /  5.4 °C 29in /  983.1hPa NE 2mph /  3.2km/h 9mph /  14.5km/h 90% 0.01in /  0.2mm 0 W/m2
04:06 44.4 °F /  6.9 °C 41.7 °F /  5.4 °C 29in /  983.1hPa WNW 4mph /  6.4km/h 9mph /  14.5km/h 90% 0.01in /  0.2mm 0 W/m2
04:11 44.4 °F /  6.9 °C 41.7 °F /  5.4 °C 29in /  983.1hPa ENE 4mph /  6.4km/h 8mph /  12.9km/h 90% 0.01in /  0.2mm 0 W/m2
04:16 44.4 °F /  6.9 °C 41.4 °F /  5.2 °C 29in /  983.1hPa NE 2.9mph /  4.7km/h 5mph /  8km/h 89% 0.01in /  0.2mm 0 W/m2
04:21 44.4 °F /  6.9 °C 41.4 °F /  5.2 °C 29in /  983.1hPa North 2.9mph /  4.7km/h 7mph /  11.3km/h 89% 0in /  0.0mm 0 W/m2
04:26 44.6 °F /  7 °C 41.5 °F /  5.3 °C 29in /  983.1hPa ENE 2mph /  3.2km/h 8mph /  12.9km/h 89% 0in /  0.0mm 0 W/m2
04:31 44.6 °F /  7 °C 41.5 °F /  5.3 °C 29in /  983.1hPa West 2.9mph /  4.7km/h 6mph /  9.7km/h 89% 0in /  0.0mm 0 W/m2
04:36 44.8 °F /  7.1 °C 41.4 °F /  5.2 °C 29in /  983.4hPa NW 0.9mph /  1.4km/h 5mph /  8km/h 88% 0in /  0.0mm 0 W/m2
04:41 44.8 °F /  7.1 °C 41.4 °F /  5.2 °C 29in /  983.1hPa NE 0.9mph /  1.4km/h 5mph /  8km/h 88% 0in /  0.0mm 0 W/m2
04:46 44.8 °F /  7.1 °C 41.4 °F /  5.2 °C 29in /  983.4hPa North 2mph /  3.2km/h 11mph /  17.7km/h 88% 0in /  0.0mm 0 W/m2
04:51 45 °F /  7.2 °C 41.5 °F /  5.3 °C 29in /  983.4hPa North 4mph /  6.4km/h 5mph /  8km/h 88% 0in /  0.0mm 0 W/m2
04:56 45 °F /  7.2 °C 41.4 °F /  5.2 °C 29in /  983.4hPa ENE 10.1mph /  16.3km/h 11mph /  17.7km/h 87% 0in /  0.0mm 0 W/m2
05:01 45 °F /  7.2 °C 41.4 °F /  5.2 °C 29in /  983.4hPa ESE 6mph /  9.7km/h 6mph /  9.7km/h 87% 0in /  0.0mm 0 W/m2
05:06 45 °F /  7.2 °C 41.4 °F /  5.2 °C 29in /  983.4hPa North 12mph /  19.3km/h 12mph /  19.3km/h 87% 0in /  0.0mm 0 W/m2
05:11 45 °F /  7.2 °C 41.4 °F /  5.2 °C 29in /  983.4hPa ESE 0.9mph /  1.4km/h 11mph /  17.7km/h 87% 0in /  0.0mm 0 W/m2
05:16 45.1 °F /  7.3 °C 41.2 °F /  5.1 °C 29in /  983.4hPa WNW 2.9mph /  4.7km/h 5mph /  8km/h 86% 0in /  0.0mm 0 W/m2
05:21 45.1 °F /  7.3 °C 41.5 °F /  5.3 °C 29in /  983.4hPa NNE 2mph /  3.2km/h 11mph /  17.7km/h 87% 0in /  0.0mm 0 W/m2
05:26 45 °F /  7.2 °C 41.4 °F /  5.2 °C 29.1in /  983.8hPa NW 2mph /  3.2km/h 8mph /  12.9km/h 87% 0in /  0.0mm 0 W/m2
05:31 45 °F /  7.2 °C 41.4 °F /  5.2 °C 29.1in /  983.8hPa NW 4mph /  6.4km/h 8mph /  12.9km/h 87% 0in /  0.0mm 0 W/m2
05:36 45 °F /  7.2 °C 41.4 °F /  5.2 °C 29.1in /  983.8hPa NW 2mph /  3.2km/h 4mph /  6.4km/h 87% 0in /  0.0mm 0 W/m2
05:41 44.8 °F /  7.1 °C 41.2 °F /  5.1 °C 29.1in /  983.8hPa ENE 2mph /  3.2km/h 4mph /  6.4km/h 87% 0in /  0.0mm 0 W/m2
05:46 44.8 °F /  7.1 °C 41.4 °F /  5.2 °C 29.1in /  983.8hPa NW 2.9mph /  4.7km/h 6mph /  9.7km/h 88% 0.01in /  0.2mm 0 W/m2
05:51 44.4 °F /  6.9 °C 41.4 °F /  5.2 °C 29.1in /  983.8hPa NNE 0.9mph /  1.4km/h 4mph /  6.4km/h 89% 0.01in /  0.2mm 0 W/m2
05:56 44.4 °F /  6.9 °C 41.4 °F /  5.2 °C 29.1in /  983.8hPa NNW 2mph /  3.2km/h 4mph /  6.4km/h 89% 0.01in /  0.2mm 0 W/m2
06:01 44.2 °F /  6.8 °C 41.5 °F /  5.3 °C 29.1in /  983.8hPa NW 0.9mph /  1.4km/h 6mph /  9.7km/h 90% 0.01in /  0.2mm 0 W/m2
06:06 44.1 °F /  6.7 °C 41.4 °F /  5.2 °C 29.1in /  983.8hPa NNW 2.9mph /  4.7km/h 4mph /  6.4km/h 90% 0.01in /  0.2mm 0 W/m2
06:12 44.1 °F /  6.7 °C 41.5 °F /  5.3 °C 29.1in /  983.8hPa NNW 0.9mph /  1.4km/h 5mph /  8km/h 91% 0.01in /  0.2mm 0 W/m2
06:17 43.9 °F /  6.6 °C 41.4 °F /  5.2 °C 29.1in /  983.8hPa Calm   1mph /  1.6km/h 91% 0.01in /  0.2mm 0 W/m2
06:22 43.9 °F /  6.6 °C 41.4 °F /  5.2 °C 29.1in /  983.8hPa Calm   3mph /  4.8km/h 91% 0.02in /  0.5mm 0 W/m2
06:27 43.9 °F /  6.6 °C 41.4 °F /  5.2 °C 29.1in /  983.8hPa North 2mph /  3.2km/h 2mph /  3.2km/h 91% 0.02in /  0.5mm 0 W/m2
06:32 43.9 °F /  6.6 °C 41.4 °F /  5.2 °C 29.1in /  983.8hPa North 4mph /  6.4km/h 4mph /  6.4km/h 91% 0.02in /  0.5mm 0 W/m2
06:37 43.9 °F /  6.6 °C 41.4 °F /  5.2 °C 29.1in /  983.8hPa WNW 2mph /  3.2km/h 5mph /  8km/h 91% 0.02in /  0.5mm 0 W/m2
06:42 43.9 °F /  6.6 °C 41.4 °F /  5.2 °C 29.1in /  984.1hPa ENE 2mph /  3.2km/h 7mph /  11.3km/h 91% 0.02in /  0.5mm 0 W/m2
06:47 43.9 °F /  6.6 °C 41.4 °F /  5.2 °C 29.1in /  984.1hPa NE 4mph /  6.4km/h 5mph /  8km/h 91% 0.02in /  0.5mm 0 W/m2
06:52 43.9 °F /  6.6 °C 41.4 °F /  5.2 °C 29.1in /  983.8hPa North 2mph /  3.2km/h 4mph /  6.4km/h 91% 0.02in /  0.5mm 0 W/m2
06:57 43.9 °F /  6.6 °C 41.4 °F /  5.2 °C 29.1in /  984.1hPa NE 2mph /  3.2km/h 4mph /  6.4km/h 91% 0.02in /  0.5mm 0 W/m2
07:02 43.9 °F /  6.6 °C 41.4 °F /  5.2 °C 29.1in /  984.1hPa Calm   2mph /  3.2km/h 91% 0.02in /  0.5mm 0 W/m2
07:07 43.9 °F /  6.6 °C 41.4 °F /  5.2 °C 29.1in /  984.4hPa Calm   4mph /  6.4km/h 91% 0.02in /  0.5mm 0 W/m2
07:12 43.9 °F /  6.6 °C 41.4 °F /  5.2 °C 29.1in /  984.1hPa ENE 2mph /  3.2km/h 5mph /  8km/h 91% 0.02in /  0.5mm 0 W/m2
07:17 43.9 °F /  6.6 °C 41.4 °F /  5.2 °C 29.1in /  984.4hPa Calm   4mph /  6.4km/h 91% 0.02in /  0.5mm 0 W/m2
07:22 43.9 °F /  6.6 °C 41.4 °F /  5.2 °C 29.1in /  984.1hPa Calm   5mph /  8km/h 91% 0.01in /  0.2mm 0 W/m2
07:27 43.9 °F /  6.6 °C 41.4 °F /  5.2 °C 29.1in /  984.1hPa ENE 4mph /  6.4km/h 6mph /  9.7km/h 91% 0.01in /  0.2mm 0 W/m2
07:32 43.9 °F /  6.6 °C 41.4 °F /  5.2 °C 29.1in /  984.4hPa North 0.9mph /  1.4km/h 4mph /  6.4km/h 91% 0.01in /  0.2mm 0 W/m2
07:37 43.9 °F /  6.6 °C 41.4 °F /  5.2 °C 29.1in /  984.4hPa East 6mph /  9.7km/h 7mph /  11.3km/h 91% 0in /  0.0mm 0 W/m2
07:42 43.9 °F /  6.6 °C 41.2 °F /  5.1 °C 29.1in /  984.1hPa NE 0.9mph /  1.4km/h 3mph /  4.8km/h 90% 0in /  0.0mm 0 W/m2
07:47 43.9 °F /  6.6 °C 41.2 °F /  5.1 °C 29.1in /  984.1hPa NNW 0.9mph /  1.4km/h 3mph /  4.8km/h 90% 0in /  0.0mm 0 W/m2
07:52 43.9 °F /  6.6 °C 41.2 °F /  5.1 °C 29.1in /  984.1hPa NE 0.9mph /  1.4km/h 5mph /  8km/h 90% 0in /  0.0mm 0 W/m2
07:57 43.5 °F /  6.4 °C 40.5 °F /  4.7 °C 29.1in /  984.4hPa NNW 2.9mph /  4.7km/h 6mph /  9.7km/h 89% 0in /  0.0mm 0 W/m2
08:02 43.5 °F /  6.4 °C 40.5 °F /  4.7 °C 29.1in /  984.4hPa West 2mph /  3.2km/h 4mph /  6.4km/h 89% 0in /  0.0mm 0 W/m2
08:07 43.5 °F /  6.4 °C 40.5 °F /  4.7 °C 29.1in /  984.4hPa NNE 0.9mph /  1.4km/h 3mph /  4.8km/h 89% 0in /  0.0mm 0 W/m2
08:12 43.5 °F /  6.4 °C 40.5 °F /  4.7 °C 29.1in /  984.8hPa Calm   2mph /  3.2km/h 89% 0in /  0.0mm 0 W/m2
08:17 43.5 °F /  6.4 °C 40.5 °F /  4.7 °C 29.1in /  984.4hPa East 2mph /  3.2km/h 4mph /  6.4km/h 89% 0in /  0.0mm 0 W/m2
08:22 43.5 °F /  6.4 °C 40.5 °F /  4.7 °C 29.1in /  984.4hPa ENE 2.9mph /  4.7km/h 3mph /  4.8km/h 89% 0in /  0.0mm 0 W/m2
08:27 43.7 °F /  6.5 °C 40.6 °F /  4.8 °C 29.1in /  984.1hPa ENE 2.9mph /  4.7km/h 4mph /  6.4km/h 89% 0in /  0.0mm 5 W/m2
08:32 43.5 °F /  6.4 °C 40.5 °F /  4.7 °C 29.1in /  984.4hPa NW 0.9mph /  1.4km/h 4mph /  6.4km/h 89% 0in /  0.0mm 12 W/m2
08:37 43.7 °F /  6.5 °C 40.5 °F /  4.7 °C 29.1in /  984.8hPa NNW 2mph /  3.2km/h 7mph /  11.3km/h 88% 0in /  0.0mm 19 W/m2
08:42 43.7 °F /  6.5 °C 40.5 °F /  4.7 °C 29.1in /  984.8hPa East 2mph /  3.2km/h 4mph /  6.4km/h 88% 0in /  0.0mm 16 W/m2
08:47 43.7 °F /  6.5 °C 40.5 °F /  4.7 °C 29.1in /  984.8hPa ENE 2.9mph /  4.7km/h 7mph /  11.3km/h 88% 0in /  0.0mm 21 W/m2
08:52 43.9 °F /  6.6 °C 40.6 °F /  4.8 °C 29.1in /  984.8hPa ENE 4mph /  6.4km/h 10mph /  16.1km/h 88% 0in /  0.0mm 26 W/m2
08:57 43.9 °F /  6.6 °C 40.6 °F /  4.8 °C 29.1in /  984.8hPa NE 2mph /  3.2km/h 3mph /  4.8km/h 88% 0in /  0.0mm 23 W/m2
09:02 43.9 °F /  6.6 °C 40.6 °F /  4.8 °C 29.1in /  984.8hPa NNE 4mph /  6.4km/h 6mph /  9.7km/h 88% 0in /  0.0mm 28 W/m2
09:07 43.9 °F /  6.6 °C 40.6 °F /  4.8 °C 29.1in /  985.1hPa NE 4mph /  6.4km/h 6mph /  9.7km/h 88% 0in /  0.0mm 25 W/m2
09:12 43.9 °F /  6.6 °C 40.3 °F /  4.6 °C 29.1in /  985.1hPa ENE 0.9mph /  1.4km/h 2mph /  3.2km/h 87% 0in /  0.0mm 32 W/m2
09:17 43.9 °F /  6.6 °C 40.3 °F /  4.6 °C 29.1in /  985.1hPa Calm   4mph /  6.4km/h 87% 0in /  0.0mm 30 W/m2
09:22 43.9 °F /  6.6 °C 40.6 °F /  4.8 °C 29.1in /  985.1hPa ESE 2mph /  3.2km/h 7mph /  11.3km/h 88% 0in /  0.0mm 25 W/m2
09:27 44.1 °F /  6.7 °C 40.8 °F /  4.9 °C 29.1in /  985.4hPa East 2.9mph /  4.7km/h 8mph /  12.9km/h 88% 0in /  0.0mm 14 W/m2
09:32 44.1 °F /  6.7 °C 40.8 °F /  4.9 °C 29.1in /  985.4hPa East 6mph /  9.7km/h 6mph /  9.7km/h 88% 0in /  0.0mm 16 W/m2
09:37 44.1 °F /  6.7 °C 40.8 °F /  4.9 °C 29.1in /  985.4hPa East 2.9mph /  4.7km/h 5mph /  8km/h 88% 0in /  0.0mm 26 W/m2
09:42 43.9 °F /  6.6 °C 40.6 °F /  4.8 °C 29.1in /  985.4hPa East 2.9mph /  4.7km/h 3mph /  4.8km/h 88% 0in /  0.0mm 33 W/m2
09:47 43.9 °F /  6.6 °C 40.6 °F /  4.8 °C 29.1in /  985.4hPa SE 2mph /  3.2km/h 7mph /  11.3km/h 88% 0in /  0.0mm 49 W/m2
09:52 43.9 °F /  6.6 °C 40.6 °F /  4.8 °C 29.1in /  985.8hPa ENE 0.9mph /  1.4km/h 4mph /  6.4km/h 88% 0in /  0.0mm 39 W/m2
09:57 43.9 °F /  6.6 °C 40.6 °F /  4.8 °C 29.1in /  985.8hPa ESE 4mph /  6.4km/h 7mph /  11.3km/h 88% 0in /  0.0mm 42 W/m2
10:02 43.9 °F /  6.6 °C 40.6 °F /  4.8 °C 29.1in /  985.8hPa East 6.9mph /  11.1km/h 7mph /  11.3km/h 88% 0in /  0.0mm 49 W/m2
10:07 43.9 °F /  6.6 °C 40.6 °F /  4.8 °C 29.1in /  985.8hPa East 2mph /  3.2km/h 4mph /  6.4km/h 88% 0in /  0.0mm 32 W/m2
10:12 43.9 °F /  6.6 °C 40.8 °F /  4.9 °C 29.1in /  985.8hPa East 0.9mph /  1.4km/h 5mph /  8km/h 89% 0in /  0.0mm 35 W/m2
10:17 43.9 °F /  6.6 °C 40.8 °F /  4.9 °C 29.1in /  985.8hPa NE 2mph /  3.2km/h 3mph /  4.8km/h 89% 0in /  0.0mm 40 W/m2
10:22 43.9 °F /  6.6 °C 40.8 °F /  4.9 °C 29.1in /  985.8hPa East 2mph /  3.2km/h 3mph /  4.8km/h 89% 0in /  0.0mm 42 W/m2
10:27 43.9 °F /  6.6 °C 40.8 °F /  4.9 °C 29.1in /  985.8hPa ENE 2mph /  3.2km/h 4mph /  6.4km/h 89% 0in /  0.0mm 54 W/m2
10:32 43.9 °F /  6.6 °C 40.8 °F /  4.9 °C 29.1in /  986.1hPa East 2mph /  3.2km/h 2mph /  3.2km/h 89% 0in /  0.0mm 26 W/m2
10:37 43.9 °F /  6.6 °C 40.8 °F /  4.9 °C 29.1in /  986.1hPa East 0.9mph /  1.4km/h 4mph /  6.4km/h 89% 0in /  0.0mm 21 W/m2
10:42 43.9 °F /  6.6 °C 40.8 °F /  4.9 °C 29.1in /  986.1hPa East 2mph /  3.2km/h 3mph /  4.8km/h 89% 0in /  0.0mm 18 W/m2
10:47 43.9 °F /  6.6 °C 41.2 °F /  5.1 °C 29.1in /  986.1hPa SE 2mph /  3.2km/h 7mph /  11.3km/h 90% 0in /  0.0mm 32 W/m2
10:52 43.7 °F /  6.5 °C 41 °F /  5 °C 29.1in /  986.5hPa SE 0.9mph /  1.4km/h 2mph /  3.2km/h 90% 0in /  0.0mm 44 W/m2
10:57 43.5 °F /  6.4 °C 40.8 °F /  4.9 °C 29.1in /  986.5hPa ENE 2mph /  3.2km/h 6mph /  9.7km/h 90% 0in /  0.0mm 16 W/m2
11:02 43.5 °F /  6.4 °C 40.8 °F /  4.9 °C 29.1in /  986.5hPa ENE 2mph /  3.2km/h 4mph /  6.4km/h 90% 0in /  0.0mm 32 W/m2
11:07 43.5 °F /  6.4 °C 41 °F /  5 °C 29.1in /  986.5hPa SE 0.9mph /  1.4km/h 5mph /  8km/h 91% 0in /  0.0mm 60 W/m2
11:12 43.5 °F /  6.4 °C 41 °F /  5 °C 29.1in /  986.1hPa SE 0.9mph /  1.4km/h 2mph /  3.2km/h 91% 0in /  0.0mm 58 W/m2
11:17 43.5 °F /  6.4 °C 41 °F /  5 °C 29.1in /  986.5hPa ENE 4mph /  6.4km/h 4mph /  6.4km/h 91% 0in /  0.0mm 81 W/m2
11:22 43.5 °F /  6.4 °C 41 °F /  5 °C 29.1in /  986.1hPa ENE 0.9mph /  1.4km/h 3mph /  4.8km/h 91% 0in /  0.0mm 53 W/m2
11:27 43.5 °F /  6.4 °C 41 °F /  5 °C 29.1in /  985.8hPa ENE 0.9mph /  1.4km/h 2mph /  3.2km/h 91% 0in /  0.0mm 93 W/m2
11:32 43.7 °F /  6.5 °C 41.2 °F /  5.1 °C 29.1in /  986.1hPa Calm   1mph /  1.6km/h 91% 0in /  0.0mm 67 W/m2
11:37 43.9 °F /  6.6 °C 41.4 °F /  5.2 °C 29.1in /  985.8hPa Calm   2mph /  3.2km/h 91% 0in /  0.0mm 95 W/m2
11:42 43.9 °F /  6.6 °C 41.4 °F /  5.2 °C 29.1in /  985.8hPa NNE 0.9mph /  1.4km/h 1mph /  1.6km/h 91% 0in /  0.0mm 107 W/m2
11:47 44.1 °F /  6.7 °C 41.5 °F /  5.3 °C 29.1in /  985.8hPa East 0.9mph /  1.4km/h 4mph /  6.4km/h 91% 0in /  0.0mm 93 W/m2
11:52 44.1 °F /  6.7 °C 41.5 °F /  5.3 °C 29.1in /  986.1hPa Calm   2mph /  3.2km/h 91% 0in /  0.0mm 53 W/m2
11:57 44.1 °F /  6.7 °C 41.5 °F /  5.3 °C 29.1in /  986.1hPa Calm   4mph /  6.4km/h 91% 0in /  0.0mm 26 W/m2
12:02 44.1 °F /  6.7 °C 41.5 °F /  5.3 °C 29.1in /  986.1hPa East 2mph /  3.2km/h 2mph /  3.2km/h 91% 0in /  0.0mm 28 W/m2
12:07 44.1 °F /  6.7 °C 41.4 °F /  5.2 °C 29.1in /  986.1hPa East 2mph /  3.2km/h 4mph /  6.4km/h 90% 0.01in /  0.2mm 23 W/m2
12:12 43.9 °F /  6.6 °C 41.2 °F /  5.1 °C 29.1in /  986.1hPa ESE 0.9mph /  1.4km/h 10mph /  16.1km/h 90% 0.02in /  0.5mm 19 W/m2
12:17 43.5 °F /  6.4 °C 40.8 °F /  4.9 °C 29.1in /  986.5hPa East 2.9mph /  4.7km/h 5mph /  8km/h 90% 0.02in /  0.5mm 16 W/m2
12:22 43.2 °F /  6.2 °C 40.1 °F /  4.5 °C 29.1in /  986.5hPa SE 0.9mph /  1.4km/h 5mph /  8km/h 89% 0.02in /  0.5mm 19 W/m2
12:27 43 °F /  6.1 °C 39.9 °F /  4.4 °C 29.1in /  986.1hPa North 2mph /  3.2km/h 3mph /  4.8km/h 89% 0.02in /  0.5mm 51 W/m2
12:32 42.6 °F /  5.9 °C 39.6 °F /  4.2 °C 29.1in /  986.1hPa Calm   3mph /  4.8km/h 89% 0.02in /  0.5mm 46 W/m2
12:37 42.6 °F /  5.9 °C 39.9 °F /  4.4 °C 29.1in /  986.1hPa Calm   2mph /  3.2km/h 90% 0.02in /  0.5mm 79 W/m2
12:42 42.4 °F /  5.8 °C 39.7 °F /  4.3 °C 29.1in /  986.1hPa ENE 2.9mph /  4.7km/h 5mph /  8km/h 90% 0.02in /  0.5mm 104 W/m2
12:47 42.4 °F /  5.8 °C 39.7 °F /  4.3 °C 29.1in /  986.1hPa NE 4mph /  6.4km/h 4mph /  6.4km/h 90% 0.02in /  0.5mm 105 W/m2
12:52 42.6 °F /  5.9 °C 40.1 °F /  4.5 °C 29.1in /  986.1hPa Calm   2mph /  3.2km/h 91% 0.02in /  0.5mm 97 W/m2
12:57 42.6 °F /  5.9 °C 40.1 °F /  4.5 °C 29.1in /  986.1hPa Calm   3mph /  4.8km/h 91% 0.02in /  0.5mm 86 W/m2
13:02 42.8 °F /  6 °C 40.3 °F /  4.6 °C 29.1in /  986.1hPa NE 0.9mph /  1.4km/h 2mph /  3.2km/h 91% 0.02in /  0.5mm 79 W/m2
13:07 43 °F /  6.1 °C 40.5 °F /  4.7 °C 29.1in /  986.1hPa NNW 2mph /  3.2km/h 2mph /  3.2km/h 91% 0.02in /  0.5mm 91 W/m2
13:12 43 °F /  6.1 °C 40.3 °F /  4.6 °C 29.1in /  986.1hPa NW 0.9mph /  1.4km/h 3mph /  4.8km/h 90% 0.01in /  0.2mm 91 W/m2
13:17 43 °F /  6.1 °C 39.9 °F /  4.4 °C 29.1in /  986.1hPa North 2mph /  3.2km/h 3mph /  4.8km/h 89% 0.01in /  0.2mm 91 W/m2
13:22 43.2 °F /  6.2 °C 39.9 °F /  4.4 °C 29.1in /  986.5hPa North 2mph /  3.2km/h 3mph /  4.8km/h 88% 0.01in /  0.2mm 83 W/m2
13:27 43.2 °F /  6.2 °C 39.6 °F /  4.2 °C 29.1in /  986.5hPa WSW 4mph /  6.4km/h 4mph /  6.4km/h 87% 0in /  0.0mm 83 W/m2
13:32 43.2 °F /  6.2 °C 39.2 °F /  4 °C 29.1in /  986.5hPa NNW 0.9mph /  1.4km/h 4mph /  6.4km/h 86% 0in /  0.0mm 83 W/m2
13:37 43.2 °F /  6.2 °C 39.2 °F /  4 °C 29.1in /  986.5hPa NW 2mph /  3.2km/h 3mph /  4.8km/h 86% 0in /  0.0mm 83 W/m2
13:42 43.2 °F /  6.2 °C 39.2 °F /  4 °C 29.1in /  986.1hPa Calm   2mph /  3.2km/h 86% 0in /  0.0mm 84 W/m2
13:47 43.3 °F /  6.3 °C 39.4 °F /  4.1 °C 29.1in /  986.5hPa Calm   3mph /  4.8km/h 86% 0in /  0.0mm 74 W/m2
13:52 43.3 °F /  6.3 °C 39.7 °F /  4.3 °C 29.1in /  986.5hPa North 0.9mph /  1.4km/h 3mph /  4.8km/h 87% 0in /  0.0mm 69 W/m2
13:57 43.3 °F /  6.3 °C 39.7 °F /  4.3 °C 29.1in /  986.5hPa ENE 4mph /  6.4km/h 4mph /  6.4km/h 87% 0in /  0.0mm 74 W/m2
14:02 43.2 °F /  6.2 °C 39.6 °F /  4.2 °C 29.1in /  986.5hPa ENE 2.9mph /  4.7km/h 4mph /  6.4km/h 87% 0in /  0.0mm 83 W/m2
14:07 43.2 °F /  6.2 °C 39.2 °F /  4 °C 29.1in /  986.5hPa Calm   2mph /  3.2km/h 86% 0in /  0.0mm 88 W/m2
14:12 43.2 °F /  6.2 °C 39.6 °F /  4.2 °C 29.1in /  986.5hPa Calm   2mph /  3.2km/h 87% 0in /  0.0mm 74 W/m2
14:17 43.2 °F /  6.2 °C 39.6 °F /  4.2 °C 29.1in /  986.8hPa Calm   1mph /  1.6km/h 87% 0in /  0.0mm 65 W/m2
14:22 43.2 °F /  6.2 °C 39.2 °F /  4 °C 29.1in /  986.8hPa WSW 0.9mph /  1.4km/h 4mph /  6.4km/h 86% 0in /  0.0mm 69 W/m2
14:27 43.2 °F /  6.2 °C 39.2 °F /  4 °C 29.1in /  986.8hPa Calm   1mph /  1.6km/h 86% 0in /  0.0mm 65 W/m2
14:32 43.2 °F /  6.2 °C 39.2 °F /  4 °C 29.1in /  986.8hPa Calm   4mph /  6.4km/h 86% 0in /  0.0mm 58 W/m2
14:37 43.2 °F /  6.2 °C 39.6 °F /  4.2 °C 29.2in /  987.1hPa Calm     87% 0in /  0.0mm 53 W/m2
14:42 43.2 °F /  6.2 °C 39.2 °F /  4 °C 29.2in /  987.1hPa East 4mph /  6.4km/h 4mph /  6.4km/h 86% 0in /  0.0mm 53 W/m2
14:48 43.2 °F /  6.2 °C 39.6 °F /  4.2 °C 29.2in /  987.1hPa East 0.9mph /  1.4km/h 2mph /  3.2km/h 87% 0in /  0.0mm 46 W/m2
14:53 43.2 °F /  6.2 °C 39.6 °F /  4.2 °C 29.2in /  987.1hPa East 0.9mph /  1.4km/h 1mph /  1.6km/h 87% 0in /  0.0mm 47 W/m2
14:58 43.2 °F /  6.2 °C 39.6 °F /  4.2 °C 29.2in /  987.1hPa NE 0.9mph /  1.4km/h 4mph /  6.4km/h 87% 0in /  0.0mm 42 W/m2
15:03 43 °F /  6.1 °C 39.4 °F /  4.1 °C 29.2in /  987.1hPa Calm     87% 0in /  0.0mm 40 W/m2
15:08 42.8 °F /  6 °C 39.6 °F /  4.2 °C 29.2in /  987.1hPa Calm   4mph /  6.4km/h 88% 0in /  0.0mm 42 W/m2
15:13 42.8 °F /  6 °C 39.6 °F /  4.2 °C 29.2in /  987.1hPa NE 2mph /  3.2km/h 2mph /  3.2km/h 88% 0in /  0.0mm 33 W/m2
15:18 42.6 °F /  5.9 °C 39.4 °F /  4.1 °C 29.2in /  987.1hPa NE 2mph /  3.2km/h 2mph /  3.2km/h 88% 0in /  0.0mm 33 W/m2
15:23 42.6 °F /  5.9 °C 39.4 °F /  4.1 °C 29.2in /  987.1hPa NE 0.9mph /  1.4km/h 1mph /  1.6km/h 88% 0in /  0.0mm 28 W/m2
15:28 42.4 °F /  5.8 °C 39.2 °F /  4 °C 29.2in /  987.1hPa Calm   1mph /  1.6km/h 88% 0in /  0.0mm 30 W/m2
15:33 42.4 °F /  5.8 °C 39.2 °F /  4 °C 29.2in /  987.1hPa North 0.9mph /  1.4km/h 3mph /  4.8km/h 88% 0in /  0.0mm 26 W/m2
15:38 42.3 °F /  5.7 °C 39 °F /  3.9 °C 29.2in /  987.1hPa Calm   1mph /  1.6km/h 88% 0in /  0.0mm 25 W/m2
15:43 42.3 °F /  5.7 °C 39 °F /  3.9 °C 29.2in /  987.1hPa Calm   3mph /  4.8km/h 88% 0in /  0.0mm 19 W/m2
15:48 42.3 °F /  5.7 °C 39 °F /  3.9 °C 29.2in /  987.5hPa North 2mph /  3.2km/h 2mph /  3.2km/h 88% 0in /  0.0mm 18 W/m2
15:53 42.1 °F /  5.6 °C 38.8 °F /  3.8 °C 29.2in /  987.5hPa Calm   3mph /  4.8km/h 88% 0in /  0.0mm 16 W/m2
15:58 42.1 °F /  5.6 °C 38.8 °F /  3.8 °C 29.2in /  987.5hPa Calm     88% 0in /  0.0mm 14 W/m2
16:03 41.9 °F /  5.5 °C 38.7 °F /  3.7 °C 29.2in /  987.5hPa Calm   1mph /  1.6km/h 88% 0in /  0.0mm 12 W/m2
16:08 41.7 °F /  5.4 °C 38.5 °F /  3.6 °C 29.2in /  987.5hPa NE 0.9mph /  1.4km/h 2mph /  3.2km/h 88% 0in /  0.0mm 9 W/m2
16:13 41.5 °F /  5.3 °C 38.3 °F /  3.5 °C 29.2in /  987.5hPa Calm     88% 0in /  0.0mm 9 W/m2
16:18 41.5 °F /  5.3 °C 38.5 °F /  3.6 °C 29.2in /  987.5hPa Calm     89% 0in /  0.0mm 9 W/m2
16:23 41.5 °F /  5.3 °C 38.8 °F /  3.8 °C 29.2in /  987.5hPa Calm     90% 0in /  0.0mm 5 W/m2
16:28 41.2 °F /  5.1 °C 38.5 °F /  3.6 °C 29.2in /  987.5hPa Calm     90% 0in /  0.0mm 0 W/m2
16:33 41 °F /  5 °C 38.3 °F /  3.5 °C 29.2in /  987.5hPa Calm     90% 0in /  0.0mm 5 W/m2
16:38 40.8 °F /  4.9 °C 38.5 °F /  3.6 °C 29.2in /  987.8hPa Calm     91% 0in /  0.0mm 5 W/m2
16:43 40.6 °F /  4.8 °C 38.3 °F /  3.5 °C 29.2in /  987.8hPa Calm     91% 0in /  0.0mm 0 W/m2
16:48 40.5 °F /  4.7 °C 38.1 °F /  3.4 °C 29.2in /  987.8hPa Calm     91% 0in /  0.0mm 0 W/m2
16:53 40.3 °F /  4.6 °C 38.1 °F /  3.4 °C 29.2in /  987.8hPa Calm     92% 0in /  0.0mm 0 W/m2
16:58 39.9 °F /  4.4 °C 37.8 °F /  3.2 °C 29.2in /  987.8hPa Calm     92% 0in /  0.0mm 0 W/m2
17:03 39.7 °F /  4.3 °C 37.6 °F /  3.1 °C 29.2in /  987.8hPa Calm     92% 0in /  0.0mm 0 W/m2
17:08 39.6 °F /  4.2 °C 37.4 °F /  3 °C 29.2in /  987.8hPa Calm     92% 0in /  0.0mm 0 W/m2
17:13 39.4 °F /  4.1 °C 37.2 °F /  2.9 °C 29.2in /  987.8hPa Calm     92% 0in /  0.0mm 0 W/m2
17:18 39.4 °F /  4.1 °C 37.6 °F /  3.1 °C 29.2in /  988.1hPa Calm     93% 0in /  0.0mm 0 W/m2
17:23 39.2 °F /  4 °C 37.4 °F /  3 °C 29.2in /  988.1hPa Calm     93% 0in /  0.0mm 0 W/m2
17:28 39.2 °F /  4 °C 37.4 °F /  3 °C 29.2in /  988.1hPa Calm     93% 0in /  0.0mm 0 W/m2
17:33 39 °F /  3.9 °C 37.4 °F /  3 °C 29.2in /  988.1hPa Calm     94% 0in /  0.0mm 0 W/m2
17:38 39 °F /  3.9 °C 37.4 °F /  3 °C 29.2in /  988.1hPa Calm     94% 0in /  0.0mm 0 W/m2
17:43 39 °F /  3.9 °C 37.4 °F /  3 °C 29.2in /  988.1hPa Calm     94% 0in /  0.0mm 0 W/m2
17:48 38.8 °F /  3.8 °C 37.2 °F /  2.9 °C 29.2in /  988.1hPa Calm     94% 0in /  0.0mm 0 W/m2
17:53 38.8 °F /  3.8 °C 37.2 °F /  2.9 °C 29.2in /  988.1hPa Calm     94% 0in /  0.0mm 0 W/m2
17:58 38.7 °F /  3.7 °C 37 °F /  2.8 °C 29.2in /  988.1hPa Calm     94% 0in /  0.0mm 0 W/m2
18:03 38.5 °F /  3.6 °C 36.9 °F /  2.7 °C 29.2in /  988.1hPa Calm     94% 0in /  0.0mm 0 W/m2
18:08 38.5 °F /  3.6 °C 36.9 °F /  2.7 °C 29.2in /  988.1hPa Calm     94% 0in /  0.0mm 0 W/m2
18:13 38.5 °F /  3.6 °C 36.9 °F /  2.7 °C 29.2in /  988.5hPa Calm     94% 0in /  0.0mm 0 W/m2
18:18 38.3 °F /  3.5 °C 37 °F /  2.8 °C 29.2in /  988.1hPa Calm     95% 0in /  0.0mm 0 W/m2
18:23 38.1 °F /  3.4 °C 36.5 °F /  2.5 °C 29.2in /  988.1hPa Calm     94% 0in /  0.0mm 0 W/m2
18:28 38.1 °F /  3.4 °C 36.5 °F /  2.5 °C 29.2in /  988.5hPa Calm     94% 0in /  0.0mm 0 W/m2
18:33 37.9 °F /  3.3 °C 36.7 °F /  2.6 °C 29.2in /  988.1hPa Calm     95% 0in /  0.0mm 0 W/m2
18:38 37.9 °F /  3.3 °C 36.7 °F /  2.6 °C 29.2in /  988.5hPa Calm     95% 0in /  0.0mm 0 W/m2
18:43 37.9 °F /  3.3 °C 36.7 °F /  2.6 °C 29.2in /  988.5hPa Calm     95% 0in /  0.0mm 0 W/m2
18:48 37.9 °F /  3.3 °C 36.7 °F /  2.6 °C 29.2in /  988.5hPa Calm     95% 0in /  0.0mm 0 W/m2
18:53 37.9 °F /  3.3 °C 36.7 °F /  2.6 °C 29.2in /  988.5hPa Calm     95% 0in /  0.0mm 0 W/m2
18:58 37.9 °F /  3.3 °C 36.7 °F /  2.6 °C 29.2in /  988.8hPa Calm     95% 0in /  0.0mm 0 W/m2
19:03 37.8 °F /  3.2 °C 36.5 °F /  2.5 °C 29.2in /  988.8hPa Calm     95% 0in /  0.0mm 0 W/m2
19:08 37.8 °F /  3.2 °C 36.5 °F /  2.5 °C 29.2in /  988.8hPa Calm     95% 0in /  0.0mm 0 W/m2
19:13 37.8 °F /  3.2 °C 36.5 °F /  2.5 °C 29.2in /  988.8hPa Calm     95% 0in /  0.0mm 0 W/m2
19:18 37.8 °F /  3.2 °C 36.5 °F /  2.5 °C 29.2in /  988.8hPa Calm   1mph /  1.6km/h 95% 0in /  0.0mm 0 W/m2
19:23 37.6 °F /  3.1 °C 36.3 °F /  2.4 °C 29.2in /  988.8hPa Calm     95% 0in /  0.0mm 0 W/m2
19:28 37.6 °F /  3.1 °C 36.3 °F /  2.4 °C 29.2in /  988.8hPa Calm     95% 0in /  0.0mm 0 W/m2
19:33 37.6 °F /  3.1 °C 36.3 °F /  2.4 °C 29.2in /  989.2hPa Calm     95% 0in /  0.0mm 0 W/m2
19:38 37.6 °F /  3.1 °C 36.3 °F /  2.4 °C 29.2in /  989.2hPa Calm     95% 0in /  0.0mm 0 W/m2
19:43 37.4 °F /  3 °C 36.1 °F /  2.3 °C 29.2in /  988.8hPa Calm     95% 0in /  0.0mm 0 W/m2
19:49 37.4 °F /  3 °C 36.1 °F /  2.3 °C 29.2in /  989.2hPa Calm     95% 0in /  0.0mm 0 W/m2
19:54 37.2 °F /  2.9 °C 36.1 °F /  2.3 °C 29.2in /  989.2hPa Calm     96% 0in /  0.0mm 0 W/m2
19:59 37.2 °F /  2.9 °C 36.1 °F /  2.3 °C 29.2in /  989.2hPa Calm     96% 0in /  0.0mm 0 W/m2
20:04 37 °F /  2.8 °C 35.8 °F /  2.1 °C 29.2in /  989.2hPa Calm     95% 0in /  0.0mm 0 W/m2
20:09 37 °F /  2.8 °C 35.8 °F /  2.1 °C 29.2in /  988.8hPa Calm     95% 0in /  0.0mm 0 W/m2
20:14 36.9 °F /  2.7 °C 35.6 °F /  2 °C 29.2in /  988.8hPa Calm     95% 0in /  0.0mm 0 W/m2
20:19 36.7 °F /  2.6 °C 35.4 °F /  1.9 °C 29.2in /  988.8hPa Calm     95% 0in /  0.0mm 0 W/m2
20:24 36.3 °F /  2.4 °C 35.1 °F /  1.7 °C 29.2in /  988.8hPa Calm     95% 0in /  0.0mm 0 W/m2
20:29 36.1 °F /  2.3 °C 34.9 °F /  1.6 °C 29.2in /  988.8hPa Calm     95% 0in /  0.0mm 0 W/m2
20:34 36.1 °F /  2.3 °C 34.9 °F /  1.6 °C 29.2in /  988.8hPa Calm     95% 0in /  0.0mm 0 W/m2
20:39 36 °F /  2.2 °C 34.7 °F /  1.5 °C 29.2in /  989.2hPa Calm     95% 0in /  0.0mm 0 W/m2
20:44 36 °F /  2.2 °C 34.9 °F /  1.6 °C 29.2in /  989.2hPa Calm     96% 0in /  0.0mm 0 W/m2
20:49 35.8 °F /  2.1 °C 34.5 °F /  1.4 °C 29.2in /  989.2hPa Calm     95% 0in /  0.0mm 0 W/m2
20:54 35.8 °F /  2.1 °C 34.7 °F /  1.5 °C 29.2in /  989.2hPa Calm     96% 0in /  0.0mm 0 W/m2
20:59 35.6 °F /  2 °C 34.5 °F /  1.4 °C 29.2in /  989.2hPa Calm     96% 0in /  0.0mm 0 W/m2
21:04 35.4 °F /  1.9 °C 34.3 °F /  1.3 °C 29.2in /  989.2hPa Calm     96% 0in /  0.0mm 0 W/m2
21:09 35.4 °F /  1.9 °C 34.3 °F /  1.3 °C 29.2in /  989.2hPa Calm   1mph /  1.6km/h 96% 0in /  0.0mm 0 W/m2
21:14 35.4 °F /  1.9 °C 34.3 °F /  1.3 °C 29.2in /  989.2hPa ENE 0.9mph /  1.4km/h 1mph /  1.6km/h 96% 0in /  0.0mm 0 W/m2
21:19 35.4 °F /  1.9 °C 34.3 °F /  1.3 °C 29.2in /  989.2hPa Calm     96% 0in /  0.0mm 0 W/m2
21:24 35.4 °F /  1.9 °C 34.3 °F /  1.3 °C 29.2in /  989.2hPa Calm     96% 0in /  0.0mm 0 W/m2
21:29 35.4 °F /  1.9 °C 34.3 °F /  1.3 °C 29.2in /  989.2hPa Calm     96% 0in /  0.0mm 0 W/m2
21:34 35.4 °F /  1.9 °C 34.3 °F /  1.3 °C 29.2in /  989.2hPa Calm     96% 0in /  0.0mm 0 W/m2
21:39 35.2 °F /  1.8 °C 34.2 °F /  1.2 °C 29.2in /  989.2hPa Calm     96% 0in /  0.0mm 0 W/m2
21:44 35.2 °F /  1.8 °C 34.2 °F /  1.2 °C 29.2in /  989.2hPa Calm     96% 0in /  0.0mm 0 W/m2
21:49 35.2 °F /  1.8 °C 34.2 °F /  1.2 °C 29.2in /  989.2hPa Calm     96% 0in /  0.0mm 0 W/m2
21:54 35.1 °F /  1.7 °C 34 °F /  1.1 °C 29.2in /  989.2hPa Calm     96% 0in /  0.0mm 0 W/m2
21:59 35.1 °F /  1.7 °C 34 °F /  1.1 °C 29.2in /  989.2hPa Calm     96% 0in /  0.0mm 0 W/m2
22:04 35.1 °F /  1.7 °C 34 °F /  1.1 °C 29.2in /  989.2hPa Calm     96% 0in /  0.0mm 0 W/m2
22:09 35.1 °F /  1.7 °C 34 °F /  1.1 °C 29.2in /  989.5hPa Calm     96% 0in /  0.0mm 0 W/m2
22:14 34.9 °F /  1.6 °C 33.8 °F /  1 °C 29.2in /  989.5hPa Calm     96% 0in /  0.0mm 0 W/m2
22:19 34.9 °F /  1.6 °C 33.8 °F /  1 °C 29.2in /  989.8hPa Calm     96% 0in /  0.0mm 0 W/m2
22:24 34.9 °F /  1.6 °C 33.8 °F /  1 °C 29.2in /  989.5hPa Calm     96% 0in /  0.0mm 0 W/m2
22:29 34.7 °F /  1.5 °C 33.6 °F /  0.9 °C 29.2in /  989.5hPa Calm     96% 0in /  0.0mm 0 W/m2
22:34 34.7 °F /  1.5 °C 33.6 °F /  0.9 °C 29.2in /  989.5hPa Calm     96% 0in /  0.0mm 0 W/m2
22:39 34.7 °F /  1.5 °C 33.6 °F /  0.9 °C 29.2in /  989.5hPa Calm     96% 0in /  0.0mm 0 W/m2
22:44 34.7 °F /  1.5 °C 33.6 °F /  0.9 °C 29.2in /  989.5hPa Calm     96% 0in /  0.0mm 0 W/m2
22:49 34.5 °F /  1.4 °C 33.4 °F /  0.8 °C 29.2in /  989.5hPa Calm     96% 0in /  0.0mm 0 W/m2
22:54 34.5 °F /  1.4 °C 33.4 °F /  0.8 °C 29.2in /  989.2hPa Calm     96% 0in /  0.0mm 0 W/m2
22:59 34.5 °F /  1.4 °C 33.4 °F /  0.8 °C 29.2in /  989.2hPa Calm     96% 0in /  0.0mm 0 W/m2
23:04 34.7 °F /  1.5 °C 33.6 °F /  0.9 °C 29.2in /  989.5hPa Calm     96% 0in /  0.0mm 0 W/m2
23:09 34.9 °F /  1.6 °C 33.8 °F /  1 °C 29.2in /  989.5hPa ENE 0.9mph /  1.4km/h 2mph /  3.2km/h 96% 0in /  0.0mm 0 W/m2
23:14 34.9 °F /  1.6 °C 33.8 °F /  1 °C 29.2in /  989.5hPa Calm   1mph /  1.6km/h 96% 0in /  0.0mm 0 W/m2
23:19 34.9 °F /  1.6 °C 33.8 °F /  1 °C 29.2in /  989.8hPa Calm     96% 0in /  0.0mm 0 W/m2
23:24 34.9 °F /  1.6 °C 33.8 °F /  1 °C 29.2in /  989.8hPa Calm     96% 0in /  0.0mm 0 W/m2
23:29 34.7 °F /  1.5 °C 33.6 °F /  0.9 °C 29.2in /  989.8hPa Calm     96% 0in /  0.0mm 0 W/m2
23:34 34.7 °F /  1.5 °C 33.6 °F /  0.9 °C 29.2in /  989.5hPa Calm     96% 0in /  0.0mm 0 W/m2
23:39 34.7 °F /  1.5 °C 33.6 °F /  0.9 °C 29.2in /  989.8hPa East 0.9mph /  1.4km/h 3mph /  4.8km/h 96% 0in /  0.0mm 0 W/m2
23:44 34.9 °F /  1.6 °C 34.2 °F /  1.2 °C 29.2in /  989.8hPa Calm     97% 0in /  0.0mm 0 W/m2
23:49 34.9 °F /  1.6 °C 34.2 °F /  1.2 °C 29.2in /  990.2hPa Calm   3mph /  4.8km/h 97% 0in /  0.0mm 0 W/m2
23:54 35.1 °F /  1.7 °C 34 °F /  1.1 °C 29.2in /  989.8hPa Calm     96% 0in /  0.0mm 0 W/m2
23:59 35.1 °F /  1.7 °C 34 °F /  1.1 °C 29.2in /  990.2hPa Calm     96% 0in /  0.0mm 0 W/m2
Juneau County Weather
Compliments of Weather Underground - 4 mb